createdAt,value
2023-02-08T00:01:08.656Z,31.85
2023-02-08T00:03:35.777Z,25.15
2023-02-08T00:06:03.190Z,25.25
2023-02-08T00:08:30.655Z,26.88
2023-02-08T00:10:58.088Z,24.80
2023-02-08T00:13:25.587Z,27.02
2023-02-08T00:15:54.821Z,27.88
2023-02-08T00:18:22.842Z,28.58
2023-02-08T00:20:50.365Z,24.77
2023-02-08T00:23:17.575Z,30.85
2023-02-08T00:25:44.617Z,28.17
2023-02-08T00:28:16.548Z,28.15
2023-02-08T00:30:44.249Z,29.88
2023-02-08T00:33:11.888Z,27.88
2023-02-08T00:35:38.927Z,29.30
2023-02-08T00:38:05.911Z,29.23
2023-02-08T00:40:32.918Z,30.15
2023-02-08T00:42:59.945Z,30.58
2023-02-08T00:45:26.996Z,27.48
2023-02-08T00:47:54.030Z,28.02
2023-02-08T00:50:21.469Z,33.75
2023-02-08T00:52:48.448Z,25.95
2023-02-08T00:55:15.376Z,26.42
2023-02-08T00:57:42.340Z,30.67
2023-02-08T01:00:11.467Z,28.20
2023-02-08T01:02:39.114Z,31.35
2023-02-08T01:05:06.722Z,26.95
2023-02-08T01:07:35.413Z,26.48
2023-02-08T01:10:02.881Z,30.95
2023-02-08T01:12:30.052Z,25.58
2023-02-08T01:14:57.052Z,29.63
2023-02-08T01:17:23.972Z,31.02
2023-02-08T01:19:50.972Z,29.48
2023-02-08T01:22:18.641Z,31.23
2023-02-08T01:24:45.567Z,27.02
2023-02-08T01:27:12.616Z,32.05
2023-02-08T01:29:39.587Z,25.17
2023-02-08T01:32:06.953Z,29.02
2023-02-08T01:34:33.953Z,29.98
2023-02-08T01:37:01.001Z,25.63
2023-02-08T01:39:28.092Z,32.30
2023-02-08T01:41:55.074Z,28.80
2023-02-08T01:44:59.724Z,24.80
2023-02-08T01:47:27.568Z,27.85
2023-02-08T01:49:54.784Z,27.83
2023-02-08T01:52:26.801Z,30.90
2023-02-08T01:55:02.024Z,29.65
2023-02-08T01:57:29.690Z,26.70
2023-02-08T02:00:12.342Z,26.40
2023-02-08T02:02:43.899Z,28.57
2023-02-08T02:05:12.072Z,28.15
2023-02-08T02:07:39.592Z,28.25
2023-02-08T02:10:14.830Z,29.83
2023-02-08T02:12:42.807Z,30.27
2023-02-08T02:15:10.130Z,29.00
2023-02-08T02:17:38.912Z,24.75
2023-02-08T02:20:24.272Z,26.85
2023-02-08T02:23:13.448Z,28.87
2023-02-08T02:26:13.133Z,24.33
2023-02-08T02:29:17.631Z,29.98
2023-02-08T02:32:03.332Z,24.30
2023-02-08T02:35:00.680Z,24.98
2023-02-08T02:37:44.347Z,28.45
2023-02-08T02:40:20.536Z,26.08
2023-02-08T02:43:48.420Z,30.83
2023-02-08T02:46:27.282Z,32.63
2023-02-08T02:49:18.333Z,33.53
2023-02-08T02:52:05.862Z,29.00
2023-02-08T02:54:47.012Z,30.73
2023-02-08T02:57:18.940Z,26.42
2023-02-08T02:59:47.077Z,28.38
2023-02-08T03:02:14.186Z,24.80
2023-02-08T03:04:41.211Z,31.60
2023-02-08T03:07:21.368Z,27.58
2023-02-08T03:10:19.157Z,29.90
2023-02-08T03:13:20.730Z,28.83
2023-02-08T03:16:02.332Z,30.33
2023-02-08T03:19:07.562Z,32.17
2023-02-08T03:21:40.344Z,26.52
2023-02-08T03:24:40.467Z,30.83
2023-02-08T03:27:22.136Z,34.05
2023-02-08T03:30:07.246Z,31.48
2023-02-08T03:32:47.192Z,28.98
2023-02-08T03:35:19.938Z,30.10
2023-02-08T03:38:10.040Z,29.02
2023-02-08T03:40:40.474Z,32.38
2023-02-08T03:43:17.895Z,34.03
2023-02-08T03:45:52.551Z,33.85
2023-02-08T03:48:21.457Z,35.53
2023-02-08T03:50:51.855Z,31.63
2023-02-08T03:53:22.283Z,32.13
2023-02-08T03:55:56.065Z,33.33
2023-02-08T03:58:38.652Z,31.27
2023-02-08T04:01:29.282Z,27.27
2023-02-08T04:03:58.531Z,34.65
2023-02-08T04:06:25.806Z,30.05
2023-02-08T04:08:53.118Z,28.98
2023-02-08T04:11:20.213Z,27.52
2023-02-08T04:13:47.236Z,33.50
2023-02-08T04:16:14.541Z,29.48
2023-02-08T04:18:41.517Z,32.10
2023-02-08T04:21:08.592Z,29.95
2023-02-08T04:23:36.129Z,30.50
2023-02-08T04:26:04.113Z,29.95
2023-02-08T04:28:31.629Z,27.67
2023-02-08T04:30:58.675Z,30.20
2023-02-08T04:33:25.947Z,34.45
2023-02-08T04:35:52.981Z,26.80
2023-02-08T04:38:19.944Z,33.35
2023-02-08T04:40:46.876Z,28.33
2023-02-08T04:43:13.820Z,30.80
2023-02-08T04:45:40.752Z,30.67
2023-02-08T04:48:07.742Z,38.38
2023-02-08T04:50:36.350Z,30.48
2023-02-08T04:53:03.757Z,34.22
2023-02-08T04:55:30.735Z,30.88
2023-02-08T04:57:58.655Z,28.80
2023-02-08T05:00:25.630Z,27.13
2023-02-08T05:02:54.511Z,27.98
2023-02-08T05:05:21.697Z,28.88
2023-02-08T05:07:48.991Z,27.83
2023-02-08T05:10:16.702Z,29.58
2023-02-08T05:12:45.950Z,34.88
2023-02-08T05:15:13.176Z,27.08
2023-02-08T05:17:40.248Z,35.45
2023-02-08T05:20:08.355Z,29.55
2023-02-08T05:22:35.519Z,30.38
2023-02-08T05:25:03.164Z,31.20
2023-02-08T05:27:30.459Z,27.10
2023-02-08T05:29:59.092Z,32.60
2023-02-08T05:32:26.513Z,31.10
2023-02-08T05:34:53.809Z,30.55
2023-02-08T05:37:20.898Z,29.63
2023-02-08T05:39:47.893Z,30.27
2023-02-08T05:42:14.758Z,31.48
2023-02-08T05:44:41.870Z,26.60
2023-02-08T05:47:08.913Z,26.20
2023-02-08T05:49:35.932Z,37.53
2023-02-08T05:52:03.084Z,29.80
2023-02-08T05:54:30.109Z,30.92
2023-02-08T05:56:57.110Z,34.70
2023-02-08T05:59:24.573Z,29.77
2023-02-08T06:01:51.480Z,32.47
2023-02-08T06:04:18.502Z,34.22
2023-02-08T06:06:45.631Z,34.95
2023-02-08T06:09:12.564Z,29.73
2023-02-08T06:11:39.616Z,31.67
2023-02-08T06:14:06.663Z,32.47
2023-02-08T06:16:33.833Z,32.80
2023-02-08T06:19:01.077Z,34.25
2023-02-08T06:21:28.628Z,30.60
2023-02-08T06:23:55.851Z,31.88
2023-02-08T06:26:22.906Z,52.88
2023-02-08T06:28:49.969Z,58.42
2023-02-08T06:31:16.937Z,37.08
2023-02-08T06:33:43.969Z,31.13
2023-02-08T06:36:11.053Z,31.98
2023-02-08T06:38:37.944Z,31.98
2023-02-08T06:41:04.975Z,35.90
2023-02-08T06:43:31.927Z,33.53
2023-02-08T06:45:58.896Z,35.40
2023-02-08T06:48:26.018Z,39.10
2023-02-08T06:50:55.182Z,32.47
2023-02-08T06:53:22.158Z,31.13
2023-02-08T06:55:50.142Z,47.38
2023-02-08T06:58:17.430Z,33.47
2023-02-08T07:00:45.509Z,42.13
2023-02-08T07:03:14.312Z,43.78
2023-02-08T07:05:43.747Z,31.90
2023-02-08T07:08:16.660Z,36.17
2023-02-08T07:11:07.415Z,29.75
2023-02-08T07:13:34.360Z,28.80
2023-02-08T07:16:01.340Z,38.33
2023-02-08T07:18:28.335Z,81.80
2023-02-08T07:20:55.227Z,35.97
2023-02-08T07:23:22.186Z,33.17
2023-02-08T07:25:59.257Z,32.78
2023-02-08T07:28:26.744Z,33.35
2023-02-08T07:30:54.181Z,35.25
2023-02-08T07:33:22.795Z,40.20
2023-02-08T07:35:50.239Z,31.98
2023-02-08T07:38:20.613Z,35.20
2023-02-08T07:40:48.068Z,38.67
2023-02-08T07:43:15.001Z,37.45
2023-02-08T07:45:51.929Z,38.90
2023-02-08T07:48:18.980Z,38.10
2023-02-08T07:50:45.993Z,32.22
2023-02-08T07:53:13.029Z,39.67
2023-02-08T07:55:39.976Z,37.13
2023-02-08T07:58:06.912Z,42.67
2023-02-08T08:00:33.915Z,37.13
2023-02-08T08:03:00.907Z,34.33
2023-02-08T08:05:27.836Z,39.50
2023-02-08T08:07:54.882Z,39.03
2023-02-08T08:10:21.876Z,39.75
2023-02-08T08:12:48.788Z,42.00
2023-02-08T08:15:15.720Z,42.05
2023-02-08T08:17:43.634Z,37.63
2023-02-08T08:20:11.672Z,35.72
2023-02-08T08:22:38.710Z,39.25
2023-02-08T08:25:06.171Z,41.38
2023-02-08T08:27:33.761Z,43.13
2023-02-08T08:30:01.249Z,39.40
2023-02-08T08:32:28.265Z,36.55
2023-02-08T08:34:55.194Z,39.78
2023-02-08T08:37:22.201Z,39.95
2023-02-08T08:39:49.104Z,40.05
2023-02-08T08:42:16.185Z,39.67
2023-02-08T08:44:43.289Z,35.88
2023-02-08T08:47:10.419Z,39.95
2023-02-08T08:49:37.431Z,33.95
2023-02-08T08:52:07.896Z,32.45
2023-02-08T08:54:35.416Z,31.27
2023-02-08T08:57:02.560Z,30.20
2023-02-08T08:59:29.556Z,29.10
2023-02-08T09:01:56.592Z,29.98
2023-02-08T09:04:23.728Z,27.67
2023-02-08T09:06:52.229Z,24.83
2023-02-08T09:09:20.136Z,22.30
2023-02-08T09:11:47.923Z,21.30
2023-02-08T09:14:15.357Z,20.67
2023-02-08T09:16:47.502Z,14.82
2023-02-08T09:19:15.526Z,18.17
2023-02-08T09:21:43.150Z,16.15
2023-02-08T09:24:10.365Z,17.88
2023-02-08T09:26:38.208Z,16.67
2023-02-08T09:29:06.519Z,21.90
2023-02-08T09:31:37.812Z,18.27
2023-02-08T09:34:06.296Z,15.50
2023-02-08T09:36:35.991Z,15.18
2023-02-08T09:39:13.604Z,14.50
2023-02-08T09:42:08.087Z,14.02
2023-02-08T09:44:40.986Z,14.23
2023-02-08T09:47:20.469Z,16.13
2023-02-08T09:50:02.546Z,20.48
2023-02-08T09:52:49.685Z,17.45
2023-02-08T09:55:30.163Z,19.13
2023-02-08T09:58:00.584Z,18.02
2023-02-08T10:00:42.544Z,17.13
2023-02-08T10:03:35.243Z,16.33
2023-02-08T10:06:04.614Z,16.38
2023-02-08T10:08:35.430Z,14.52
2023-02-08T10:11:02.653Z,15.77
2023-02-08T10:13:42.242Z,17.05
2023-02-08T10:16:23.131Z,16.88
2023-02-08T10:18:57.754Z,15.73
2023-02-08T10:21:52.366Z,18.45
2023-02-08T10:24:39.797Z,16.60
2023-02-08T10:27:33.700Z,16.48
2023-02-08T10:30:17.053Z,20.55
2023-02-08T10:33:02.548Z,17.92
2023-02-08T10:35:37.496Z,17.83
2023-02-08T10:38:19.420Z,16.00
2023-02-08T10:40:59.732Z,15.63
2023-02-08T10:43:35.697Z,17.88
2023-02-08T10:46:21.444Z,19.10
2023-02-08T10:49:10.740Z,17.10
2023-02-08T10:51:37.862Z,17.63
2023-02-08T10:54:04.978Z,16.70
2023-02-08T10:56:50.916Z,17.55
2023-02-08T10:59:22.517Z,17.63
2023-02-08T11:01:50.925Z,16.73
2023-02-08T11:04:18.331Z,16.80
2023-02-08T11:06:47.204Z,15.77
2023-02-08T11:09:34.449Z,19.13
2023-02-08T11:12:02.719Z,18.25
2023-02-08T11:14:50.581Z,15.63
2023-02-08T11:17:34.047Z,17.52
2023-02-08T11:20:01.503Z,17.38
2023-02-08T11:22:34.560Z,16.80
2023-02-08T11:25:05.587Z,18.88
2023-02-08T11:27:36.285Z,15.77
2023-02-08T11:30:15.607Z,19.73
2023-02-08T11:32:45.307Z,17.20
2023-02-08T11:35:21.961Z,19.52
2023-02-08T11:37:55.157Z,19.73
2023-02-08T11:40:23.867Z,19.50
2023-02-08T11:42:52.561Z,19.75
2023-02-08T11:45:21.687Z,20.33
2023-02-08T11:47:50.064Z,18.80
2023-02-08T11:50:32.676Z,19.75
2023-02-08T11:53:01.759Z,20.85
2023-02-08T11:55:32.499Z,18.08
2023-02-08T11:58:25.859Z,20.52
2023-02-08T12:01:19.934Z,18.73
2023-02-08T12:03:50.326Z,19.13
2023-02-08T12:06:23.332Z,28.38
2023-02-08T12:09:09.202Z,18.35
2023-02-08T12:11:43.543Z,17.98
2023-02-08T12:14:35.251Z,18.63
2023-02-08T12:17:24.184Z,19.60
2023-02-08T12:20:16.037Z,20.48
2023-02-08T12:22:54.592Z,22.77
2023-02-08T12:25:39.569Z,17.95
2023-02-08T12:28:41.516Z,18.65
2023-02-08T12:31:19.772Z,16.92
2023-02-08T12:34:00.905Z,18.05
2023-02-08T12:37:14.608Z,18.45
2023-02-08T12:40:25.684Z,17.48
2023-02-08T12:42:58.285Z,15.30
2023-02-08T12:45:43.938Z,20.65
2023-02-08T12:48:29.954Z,17.80
2023-02-08T12:51:19.985Z,17.30
2023-02-08T12:53:51.982Z,17.73
2023-02-08T12:56:24.035Z,17.33
2023-02-08T12:59:08.143Z,19.73
2023-02-08T13:01:46.210Z,19.65
2023-02-08T13:04:26.317Z,19.60
2023-02-08T13:06:58.088Z,19.35
2023-02-08T13:09:35.772Z,18.27
2023-02-08T13:12:12.751Z,19.33
2023-02-08T13:14:53.665Z,19.77
2023-02-08T13:17:29.795Z,19.55
2023-02-08T13:20:02.996Z,24.23
2023-02-08T13:22:41.726Z,18.98
2023-02-08T13:25:32.542Z,20.40
2023-02-08T13:28:09.169Z,19.55
2023-02-08T13:30:40.133Z,20.17
2023-02-08T13:33:21.027Z,19.55
2023-02-08T13:35:53.309Z,21.15
2023-02-08T13:38:31.143Z,19.65
2023-02-08T13:41:19.490Z,20.35
2023-02-08T13:44:04.388Z,20.83
2023-02-08T13:46:49.173Z,19.70
2023-02-08T13:49:42.841Z,22.33
2023-02-08T13:52:12.107Z,21.30
2023-02-08T13:54:39.330Z,23.17
2023-02-08T13:57:44.966Z,20.75
2023-02-08T14:00:23.888Z,24.13
2023-02-08T14:03:15.555Z,22.10
2023-02-08T14:05:53.794Z,21.38
2023-02-08T14:08:24.393Z,23.65
2023-02-08T14:11:16.996Z,20.45
2023-02-08T14:13:55.546Z,20.77
2023-02-08T14:16:36.354Z,20.08
2023-02-08T14:19:06.357Z,19.98
2023-02-08T14:21:44.473Z,19.25
2023-02-08T14:24:35.663Z,23.83
2023-02-08T14:27:28.633Z,20.58
2023-02-08T14:30:17.283Z,23.23
2023-02-08T14:33:04.878Z,20.58
2023-02-08T14:35:36.735Z,21.63
2023-02-08T14:38:18.758Z,22.85
2023-02-08T14:40:53.619Z,33.17
2023-02-08T14:43:20.501Z,24.37
2023-02-08T14:45:52.743Z,20.10
2023-02-08T14:48:42.536Z,20.25
2023-02-08T14:51:12.414Z,19.48
2023-02-08T14:53:42.431Z,24.33
2023-02-08T14:56:17.423Z,21.10
2023-02-08T14:59:10.529Z,20.60
2023-02-08T15:01:53.573Z,21.13
2023-02-08T15:04:21.176Z,23.52
2023-02-08T15:06:58.763Z,19.58
2023-02-08T15:09:32.456Z,21.27
2023-02-08T15:12:03.260Z,19.25
2023-02-08T15:14:33.817Z,21.00
2023-02-08T15:17:02.089Z,24.50
2023-02-08T15:19:43.146Z,21.55
2023-02-08T15:22:18.269Z,19.33
2023-02-08T15:24:53.356Z,23.33
2023-02-08T15:27:23.556Z,23.20
2023-02-08T15:29:50.635Z,19.88
2023-02-08T15:32:20.419Z,20.75
2023-02-08T15:34:54.451Z,23.77
2023-02-08T15:37:22.096Z,17.67
2023-02-08T15:39:53.398Z,22.27
2023-02-08T15:42:26.050Z,17.23
2023-02-08T15:44:53.213Z,22.50
2023-02-08T15:47:34.560Z,20.58
2023-02-08T15:50:03.910Z,24.45
2023-02-08T15:52:35.864Z,20.40
2023-02-08T15:55:06.208Z,20.98
2023-02-08T15:57:54.000Z,21.98
2023-02-08T16:00:24.887Z,19.52
2023-02-08T16:02:58.472Z,20.55
2023-02-08T16:05:31.614Z,19.02
2023-02-08T16:08:00.500Z,22.00
2023-02-08T16:11:02.193Z,20.65
2023-02-08T16:13:33.550Z,19.27
2023-02-08T16:16:22.083Z,17.73
2023-02-08T16:19:03.936Z,17.42
2023-02-08T16:21:41.951Z,20.95
2023-02-08T16:24:11.875Z,19.13
2023-02-08T16:27:00.596Z,19.08
2023-02-08T16:29:31.984Z,18.45
2023-02-08T16:32:03.616Z,17.13
2023-02-08T16:34:36.948Z,18.73
2023-02-08T16:37:06.620Z,21.63
2023-02-08T16:39:39.708Z,18.40
2023-02-08T16:42:20.674Z,16.38
2023-02-08T16:45:21.033Z,17.05
2023-02-08T16:47:54.039Z,18.30
2023-02-08T16:50:26.814Z,18.90
2023-02-08T16:52:59.613Z,20.25
2023-02-08T16:55:30.006Z,22.40
2023-02-08T16:57:58.290Z,20.92
2023-02-08T17:00:29.058Z,23.08
2023-02-08T17:02:57.037Z,25.00
2023-02-08T17:05:27.263Z,20.58
2023-02-08T17:07:54.996Z,22.40
2023-02-08T17:10:31.073Z,21.48
2023-02-08T17:13:17.386Z,19.05
2023-02-08T17:15:47.750Z,19.35
2023-02-08T17:18:14.843Z,21.20
2023-02-08T17:20:42.638Z,20.60
2023-02-08T17:23:10.065Z,18.80
2023-02-08T17:25:40.306Z,21.83
2023-02-08T17:28:12.267Z,20.42
2023-02-08T17:30:42.119Z,22.10
2023-02-08T17:33:18.411Z,24.98
2023-02-08T17:35:52.276Z,25.52
2023-02-08T17:38:39.825Z,21.58
2023-02-08T17:41:27.672Z,20.27
2023-02-08T17:43:56.455Z,23.63
2023-02-08T17:46:26.324Z,23.15
2023-02-08T17:48:53.629Z,21.05
2023-02-08T17:51:23.538Z,20.80
2023-02-08T17:53:50.883Z,20.35
2023-02-08T17:56:23.656Z,20.45
2023-02-08T17:58:53.597Z,17.52
2023-02-08T18:01:24.471Z,18.80
2023-02-08T18:03:52.420Z,19.00
2023-02-08T18:06:20.273Z,18.60
2023-02-08T18:08:47.322Z,22.45
2023-02-08T18:11:20.932Z,20.30
2023-02-08T18:13:50.257Z,17.88
2023-02-08T18:16:20.740Z,20.13
2023-02-08T18:18:48.008Z,18.13
2023-02-08T18:21:19.131Z,23.02
2023-02-08T18:23:47.481Z,18.35
2023-02-08T18:26:16.764Z,17.30
2023-02-08T18:28:45.024Z,19.45
2023-02-08T18:31:15.058Z,18.17
2023-02-08T18:33:43.718Z,16.25
2023-02-08T18:36:11.649Z,20.73
2023-02-08T18:38:40.600Z,18.30
2023-02-08T18:41:09.584Z,18.70
2023-02-08T18:43:37.857Z,22.67
2023-02-08T18:46:10.672Z,19.52
2023-02-08T18:48:39.203Z,22.67
2023-02-08T18:51:08.108Z,21.02
2023-02-08T18:53:37.950Z,19.73
2023-02-08T18:56:07.614Z,23.45
2023-02-08T18:58:35.145Z,24.08
2023-02-08T19:01:14.610Z,22.70
2023-02-08T19:03:43.163Z,22.27
2023-02-08T19:06:13.082Z,17.35
2023-02-08T19:08:41.585Z,23.73
2023-02-08T19:11:29.262Z,19.55
2023-02-08T19:13:57.702Z,73.53
2023-02-08T19:16:25.336Z,21.33
2023-02-08T19:18:56.517Z,24.15
2023-02-08T19:21:24.246Z,22.40
2023-02-08T19:23:52.496Z,24.27
2023-02-08T19:26:28.059Z,26.25
2023-02-08T19:28:59.020Z,24.27
2023-02-08T19:31:27.997Z,26.02
2023-02-08T19:33:58.761Z,21.83
2023-02-08T19:36:32.098Z,24.95
2023-02-08T19:38:59.736Z,23.15
2023-02-08T19:41:31.090Z,24.05
2023-02-08T19:43:58.252Z,21.55
2023-02-08T19:46:27.526Z,26.00
2023-02-08T19:48:56.993Z,22.50
2023-02-08T19:51:24.926Z,21.77
2023-02-08T19:53:51.980Z,23.83
2023-02-08T19:56:19.676Z,25.05
2023-02-08T19:58:47.405Z,26.65
2023-02-08T20:01:19.828Z,30.48
2023-02-08T20:03:48.402Z,26.05
2023-02-08T20:06:24.064Z,24.50
2023-02-08T20:11:30.822Z,30.23
2023-02-08T20:13:59.905Z,27.20
2023-02-08T20:16:31.232Z,26.95
2023-02-08T20:18:58.569Z,22.65
2023-02-08T20:21:25.682Z,25.15
2023-02-08T20:23:52.831Z,24.20
2023-02-08T20:26:28.263Z,25.38
2023-02-08T20:28:57.778Z,25.00
2023-02-08T20:31:30.307Z,25.48
2023-02-08T20:33:59.827Z,25.00
2023-02-08T20:36:29.310Z,28.15
2023-02-08T20:38:58.333Z,28.30
2023-02-08T20:41:27.887Z,28.33
2023-02-08T20:43:55.014Z,27.33
2023-02-08T20:46:30.958Z,23.52
2023-02-08T20:48:59.426Z,27.85
2023-02-08T20:51:27.852Z,28.55
2023-02-08T20:53:57.480Z,22.70
2023-02-08T20:56:30.212Z,22.90
2023-02-08T20:58:57.771Z,22.70
2023-02-08T21:01:27.925Z,18.52
2023-02-08T21:03:56.476Z,23.42
2023-02-08T21:06:26.613Z,18.10
2023-02-08T21:08:55.422Z,20.48
2023-02-08T21:11:25.706Z,17.75
2023-02-08T21:13:52.931Z,19.33
2023-02-08T21:16:20.337Z,21.63
2023-02-08T21:18:48.024Z,25.88
2023-02-08T21:21:15.360Z,18.83
2023-02-08T21:23:44.056Z,17.42
2023-02-08T21:26:13.663Z,17.13
2023-02-08T21:28:41.226Z,20.27
2023-02-08T21:31:16.809Z,19.95
2023-02-08T21:33:44.408Z,19.58
2023-02-08T21:36:14.778Z,20.10
2023-02-08T21:38:42.568Z,16.83
2023-02-08T21:41:13.313Z,16.90
2023-02-08T21:43:40.380Z,20.42
2023-02-08T21:46:09.267Z,22.88
2023-02-08T21:48:55.647Z,17.67
2023-02-08T21:51:43.071Z,19.33
2023-02-08T21:54:31.416Z,20.55
2023-02-08T21:57:00.526Z,17.60
2023-02-08T21:59:28.978Z,20.02
2023-02-08T22:01:56.662Z,15.95
2023-02-08T22:04:23.946Z,16.25
2023-02-08T22:06:51.993Z,15.43
2023-02-08T22:09:20.767Z,16.15
2023-02-08T22:11:48.766Z,15.80
2023-02-08T22:14:15.944Z,14.63
2023-02-08T22:16:42.991Z,15.55
2023-02-08T22:19:09.979Z,14.88
2023-02-08T22:21:36.959Z,15.77
2023-02-08T22:24:04.029Z,17.00
2023-02-08T22:26:32.280Z,16.73
2023-02-08T22:28:59.261Z,14.43
2023-02-08T22:31:26.438Z,16.05
2023-02-08T22:33:54.245Z,15.88
2023-02-08T22:36:21.706Z,19.08
2023-02-08T22:38:48.833Z,15.02
2023-02-08T22:41:17.284Z,14.52
2023-02-08T22:43:45.165Z,12.48
2023-02-08T22:46:12.915Z,19.67
2023-02-08T22:48:40.003Z,15.30
2023-02-08T22:51:17.184Z,12.98
2023-02-08T22:53:44.864Z,16.67
2023-02-08T22:56:14.947Z,12.88
2023-02-08T22:58:42.119Z,13.43
2023-02-08T23:01:11.124Z,13.68
2023-02-08T23:03:38.559Z,17.80
2023-02-08T23:06:07.375Z,14.65
2023-02-08T23:08:34.702Z,11.10
2023-02-08T23:11:03.921Z,14.23
2023-02-08T23:13:32.501Z,15.20
2023-02-08T23:15:59.891Z,11.07
2023-02-08T23:18:27.312Z,15.50
2023-02-08T23:20:54.654Z,15.93
2023-02-08T23:23:22.077Z,12.75
2023-02-08T23:25:49.276Z,12.57
2023-02-08T23:28:16.381Z,13.70
2023-02-08T23:30:43.958Z,14.25
2023-02-08T23:33:11.177Z,13.85
2023-02-08T23:35:41.683Z,13.70
2023-02-08T23:38:09.538Z,16.42
2023-02-08T23:40:36.846Z,12.63
2023-02-08T23:43:03.967Z,12.20
2023-02-08T23:45:31.224Z,13.77
2023-02-08T23:47:58.477Z,11.85
2023-02-08T23:50:26.146Z,13.10
2023-02-08T23:52:53.154Z,12.45
2023-02-08T23:55:20.189Z,13.02
2023-02-08T23:57:47.130Z,14.93
